createdAt,value
2022-08-03T00:00:25.332Z,997.70
2022-08-03T00:01:25.282Z,999.90
2022-08-03T00:02:25.221Z,999.90
2022-08-03T00:03:25.263Z,999.90
2022-08-03T00:04:33.608Z,997.60
2022-08-03T00:05:26.373Z,993.80
2022-08-03T00:06:25.162Z,997.10
2022-08-03T00:07:25.174Z,997.60
2022-08-03T00:08:25.144Z,993.10
2022-08-03T00:09:25.117Z,990.00
2022-08-03T00:10:26.122Z,987.00
2022-08-03T00:11:25.157Z,985.50
2022-08-03T00:12:25.166Z,957.20
2022-08-03T00:13:25.065Z,964.10
2022-08-03T00:14:25.075Z,967.90
2022-08-03T00:15:25.035Z,963.80
2022-08-03T00:16:25.135Z,955.20
2022-08-03T00:17:25.022Z,959.60
2022-08-03T00:18:25.006Z,951.40
2022-08-03T00:19:24.985Z,966.00
2022-08-03T00:20:24.992Z,959.00
2022-08-03T00:21:24.978Z,967.10
2022-08-03T00:22:24.956Z,961.30
2022-08-03T00:23:24.938Z,970.40
2022-08-03T00:24:24.926Z,972.70
2022-08-03T00:25:24.897Z,973.50
2022-08-03T00:26:24.898Z,962.80
2022-08-03T00:27:25.028Z,968.50
2022-08-03T00:28:24.876Z,971.30
2022-08-03T00:29:24.860Z,965.60
2022-08-03T00:30:26.920Z,972.30
2022-08-03T00:31:50.080Z,986.30
2022-08-03T00:32:25.817Z,983.20
2022-08-03T00:33:24.806Z,968.50
2022-08-03T00:34:57.927Z,964.20
2022-08-03T00:35:36.372Z,975.60
2022-08-03T00:36:25.783Z,968.60
2022-08-03T00:37:24.749Z,981.60
2022-08-03T00:38:26.258Z,979.20
2022-08-03T00:39:24.718Z,977.20
2022-08-03T00:40:24.719Z,969.80
2022-08-03T00:41:24.704Z,964.90
2022-08-03T00:42:24.690Z,965.80
2022-08-03T00:43:24.669Z,971.40
2022-08-03T00:44:24.656Z,969.60
2022-08-03T00:45:24.659Z,981.10
2022-08-03T00:46:24.639Z,974.90
2022-08-03T00:47:24.618Z,969.60
2022-08-03T00:48:33.007Z,970.00
2022-08-03T00:49:25.813Z,977.50
2022-08-03T00:50:24.580Z,984.90
2022-08-03T00:51:24.581Z,984.10
2022-08-03T00:52:24.565Z,999.90
2022-08-03T00:53:24.530Z,993.40
2022-08-03T00:54:24.519Z,999.90
2022-08-03T00:55:24.511Z,999.90
2022-08-03T00:56:24.501Z,999.90
2022-08-03T00:57:24.492Z,999.90
2022-08-03T00:58:24.492Z,999.90
2022-08-03T00:59:24.451Z,999.90
2022-08-03T01:00:24.521Z,997.40
2022-08-03T01:01:24.508Z,999.90
2022-08-03T01:02:24.422Z,999.90
2022-08-03T01:03:24.402Z,999.90
2022-08-03T01:04:24.406Z,999.90
2022-08-03T01:05:24.381Z,997.10
2022-08-03T01:06:24.370Z,999.90
2022-08-03T01:07:24.350Z,999.90
2022-08-03T01:08:24.342Z,989.10
2022-08-03T01:09:24.321Z,998.50
2022-08-03T01:10:24.312Z,996.80
2022-08-03T01:11:24.383Z,999.90
2022-08-03T01:12:24.296Z,999.30
2022-08-03T01:14:00.970Z,991.30
2022-08-03T01:14:26.383Z,990.70
2022-08-03T01:15:24.255Z,991.00
2022-08-03T01:16:27.921Z,999.90
2022-08-03T01:17:25.214Z,999.90
2022-08-03T01:18:24.213Z,998.50
2022-08-03T01:19:24.186Z,995.80
2022-08-03T01:20:24.196Z,992.70
2022-08-03T01:21:24.176Z,992.40
2022-08-03T01:22:24.226Z,988.30
2022-08-03T01:23:24.143Z,982.70
2022-08-03T01:24:25.126Z,986.40
2022-08-03T01:25:24.115Z,981.00
2022-08-03T01:26:24.094Z,993.80
2022-08-03T01:27:24.095Z,984.10
2022-08-03T01:28:24.078Z,993.90
2022-08-03T01:29:24.072Z,980.30
2022-08-03T01:30:24.045Z,993.40
2022-08-03T01:31:24.051Z,990.00
2022-08-03T01:32:59.513Z,987.70
2022-08-03T01:33:25.041Z,984.30
2022-08-03T01:34:23.995Z,992.50
2022-08-03T01:35:23.986Z,992.60
2022-08-03T01:36:23.966Z,985.50
2022-08-03T01:37:23.957Z,991.00
2022-08-03T01:38:23.945Z,986.60
2022-08-03T01:39:23.964Z,987.20
2022-08-03T01:40:23.906Z,999.90
2022-08-03T01:41:23.926Z,987.70
2022-08-03T01:42:23.885Z,995.30
2022-08-03T01:44:27.174Z,999.30
2022-08-03T01:44:29.177Z,988.10
2022-08-03T01:45:24.858Z,982.30
2022-08-03T01:46:23.836Z,992.50
2022-08-03T01:47:23.828Z,992.90
2022-08-03T01:48:23.807Z,991.00
2022-08-03T01:49:23.880Z,980.80
2022-08-03T01:50:23.797Z,999.90
2022-08-03T01:51:23.779Z,995.50
2022-08-03T01:52:24.746Z,997.50
2022-08-03T01:53:23.749Z,984.20
2022-08-03T01:54:23.736Z,999.90
2022-08-03T01:55:23.810Z,999.90
2022-08-03T01:56:23.708Z,988.40
2022-08-03T01:57:23.690Z,987.50
2022-08-03T01:58:23.667Z,986.30
2022-08-03T01:59:23.678Z,996.20
2022-08-03T02:00:23.658Z,991.50
2022-08-03T02:01:23.731Z,986.40
2022-08-03T02:02:32.700Z,989.50
2022-08-03T02:03:24.610Z,993.90
2022-08-03T02:04:23.602Z,990.30
2022-08-03T02:05:23.610Z,987.40
2022-08-03T02:07:00.330Z,992.80
2022-08-03T02:07:24.559Z,989.60
2022-08-03T02:08:23.542Z,993.00
2022-08-03T02:09:23.550Z,987.10
2022-08-03T02:10:35.285Z,985.50
2022-08-03T02:11:24.519Z,993.00
2022-08-03T02:12:23.490Z,992.20
2022-08-03T02:13:23.503Z,994.00
2022-08-03T02:14:23.467Z,991.00
2022-08-03T02:15:23.462Z,993.70
2022-08-03T02:16:23.454Z,987.90
2022-08-03T02:17:39.434Z,979.50
2022-08-03T02:18:24.401Z,995.80
2022-08-03T02:19:23.413Z,992.40
2022-08-03T02:20:23.381Z,982.50
2022-08-03T02:21:55.557Z,986.60
2022-08-03T02:22:24.361Z,987.70
2022-08-03T02:23:23.352Z,983.80
2022-08-03T02:24:23.330Z,983.70
2022-08-03T02:25:23.324Z,983.50
2022-08-03T02:26:23.310Z,994.20
2022-08-03T02:27:23.302Z,982.10
2022-08-03T02:28:23.364Z,984.90
2022-08-03T02:29:39.762Z,987.80
2022-08-03T02:30:24.242Z,974.80
2022-08-03T02:31:23.277Z,983.10
2022-08-03T02:32:23.228Z,996.10
2022-08-03T02:33:23.213Z,988.90
2022-08-03T02:34:23.202Z,997.10
2022-08-03T02:35:23.192Z,985.60
2022-08-03T02:36:23.171Z,985.50
2022-08-03T02:37:23.152Z,991.50
2022-08-03T02:38:23.152Z,984.70
2022-08-03T02:39:23.404Z,984.20
2022-08-03T02:40:23.114Z,994.50
2022-08-03T02:41:23.113Z,987.40
2022-08-03T02:42:23.087Z,990.70
2022-08-03T02:43:23.075Z,985.00
2022-08-03T02:44:23.083Z,986.80
2022-08-03T02:45:23.054Z,982.40
2022-08-03T02:46:23.034Z,992.10
2022-08-03T02:47:23.036Z,980.40
2022-08-03T02:48:23.013Z,976.50
2022-08-03T02:49:40.930Z,982.60
2022-08-03T02:50:24.283Z,981.90
2022-08-03T02:51:22.974Z,984.30
2022-08-03T02:52:22.962Z,988.30
2022-08-03T02:53:22.959Z,990.00
2022-08-03T02:54:22.928Z,986.90
2022-08-03T02:55:22.942Z,979.00
2022-08-03T02:56:22.909Z,990.00
2022-08-03T02:57:22.912Z,986.00
2022-08-03T02:58:22.876Z,989.50
2022-08-03T02:59:22.886Z,971.80
2022-08-03T03:00:28.054Z,966.60
2022-08-03T03:01:24.301Z,969.90
2022-08-03T03:02:22.834Z,985.00
2022-08-03T03:03:22.815Z,971.40
2022-08-03T03:04:22.808Z,972.40
2022-08-03T03:05:55.824Z,982.50
2022-08-03T03:06:23.775Z,982.00
2022-08-03T03:07:22.768Z,961.20
2022-08-03T03:08:27.439Z,974.30
2022-08-03T03:09:23.739Z,976.40
2022-08-03T03:10:23.716Z,975.60
2022-08-03T03:11:22.707Z,952.80
2022-08-03T03:12:23.008Z,953.80
2022-08-03T03:13:22.707Z,962.00
2022-08-03T03:14:33.661Z,970.70
2022-08-03T03:15:23.661Z,966.60
2022-08-03T03:16:22.638Z,974.50
2022-08-03T03:17:22.638Z,963.90
2022-08-03T03:18:23.163Z,962.70
2022-08-03T03:19:22.608Z,962.90
2022-08-03T03:20:29.741Z,958.10
2022-08-03T03:21:23.609Z,972.10
2022-08-03T03:22:22.558Z,973.80
2022-08-03T03:23:22.656Z,958.60
2022-08-03T03:24:22.531Z,959.80
2022-08-03T03:25:22.519Z,963.90
2022-08-03T03:26:22.499Z,973.60
2022-08-03T03:27:22.502Z,965.10
2022-08-03T03:28:22.493Z,962.80
2022-08-03T03:29:22.479Z,956.80
2022-08-03T03:30:22.450Z,955.10
2022-08-03T03:31:22.448Z,967.60
2022-08-03T03:32:22.431Z,959.90
2022-08-03T03:33:22.409Z,967.10
2022-08-03T03:34:22.476Z,959.30
2022-08-03T03:35:22.411Z,969.40
2022-08-03T03:36:22.369Z,970.50
2022-08-03T03:37:22.370Z,977.10
2022-08-03T03:38:22.350Z,985.70
2022-08-03T03:39:22.339Z,979.50
2022-08-03T03:40:22.330Z,991.90
2022-08-03T03:41:22.321Z,996.30
2022-08-03T03:42:22.289Z,996.00
2022-08-03T03:43:22.280Z,991.90
2022-08-03T03:44:22.273Z,988.50
2022-08-03T03:45:22.704Z,983.60
2022-08-03T03:46:22.240Z,983.20
2022-08-03T03:47:32.233Z,987.10
2022-08-03T03:48:23.211Z,989.00
2022-08-03T03:49:22.284Z,989.70
2022-08-03T03:50:22.192Z,991.80
2022-08-03T03:51:22.181Z,981.00
2022-08-03T03:52:22.161Z,988.00
2022-08-03T03:53:22.156Z,984.90
2022-08-03T03:54:22.140Z,982.70
2022-08-03T03:55:22.131Z,981.60
2022-08-03T03:56:22.762Z,977.90
2022-08-03T03:57:22.102Z,982.40
2022-08-03T03:58:22.081Z,980.10
2022-08-03T03:59:22.071Z,976.90
2022-08-03T04:00:22.061Z,981.20
2022-08-03T04:01:22.090Z,984.40
2022-08-03T04:02:22.023Z,979.20
2022-08-03T04:03:22.021Z,983.00
2022-08-03T04:04:22.001Z,977.10
2022-08-03T04:05:21.992Z,983.80
2022-08-03T04:06:21.981Z,977.20
2022-08-03T04:07:22.145Z,988.60
2022-08-03T04:08:21.947Z,988.50
2022-08-03T04:09:21.940Z,977.20
2022-08-03T04:10:21.916Z,977.50
2022-08-03T04:11:29.010Z,984.60
2022-08-03T04:12:22.896Z,977.10
2022-08-03T04:13:21.883Z,963.40
2022-08-03T04:14:21.863Z,968.00
2022-08-03T04:15:21.865Z,973.00
2022-08-03T04:16:21.838Z,979.30
2022-08-03T04:17:21.844Z,974.30
2022-08-03T04:18:21.865Z,973.50
2022-08-03T04:19:23.455Z,972.40
2022-08-03T04:20:21.783Z,972.60
2022-08-03T04:21:21.787Z,963.80
2022-08-03T04:22:21.767Z,953.90
2022-08-03T04:23:21.754Z,950.30
2022-08-03T04:24:21.746Z,951.90
2022-08-03T04:25:21.725Z,957.90
2022-08-03T04:26:21.705Z,955.70
2022-08-03T04:27:21.705Z,953.80
2022-08-03T04:28:30.362Z,943.30
2022-08-03T04:29:22.855Z,943.30
2022-08-03T04:30:21.659Z,946.40
2022-08-03T04:31:21.645Z,957.70
2022-08-03T04:32:21.637Z,948.30
2022-08-03T04:33:21.617Z,962.00
2022-08-03T04:34:21.607Z,952.20
2022-08-03T04:35:21.596Z,963.50
2022-08-03T04:36:22.572Z,955.00
2022-08-03T04:37:21.576Z,964.10
2022-08-03T04:38:21.547Z,963.40
2022-08-03T04:39:21.548Z,968.20
2022-08-03T04:40:22.942Z,969.60
2022-08-03T04:41:21.527Z,976.70
2022-08-03T04:42:21.732Z,984.00
2022-08-03T04:43:21.499Z,973.80
2022-08-03T04:44:21.479Z,975.40
2022-08-03T04:45:22.463Z,971.50
2022-08-03T04:46:21.457Z,971.90
2022-08-03T04:47:21.453Z,972.00
2022-08-03T04:48:21.418Z,970.80
2022-08-03T04:49:21.458Z,972.40
2022-08-03T04:50:21.831Z,967.40
2022-08-03T04:51:21.523Z,958.10
2022-08-03T04:52:21.369Z,959.30
2022-08-03T04:53:21.359Z,968.40
2022-08-03T04:54:21.355Z,954.50
2022-08-03T04:55:21.338Z,963.10
2022-08-03T04:56:21.318Z,957.30
2022-08-03T04:57:22.989Z,959.70
2022-08-03T04:58:21.279Z,948.70
2022-08-03T04:59:21.271Z,947.30
2022-08-03T05:00:21.260Z,952.30
2022-08-03T05:01:21.292Z,946.40
2022-08-03T05:02:21.311Z,938.00
2022-08-03T05:03:25.098Z,936.40
2022-08-03T05:04:21.219Z,922.00
2022-08-03T05:05:21.203Z,928.70
2022-08-03T05:06:21.182Z,939.20
2022-08-03T05:07:25.065Z,922.20
2022-08-03T05:08:27.941Z,923.70
2022-08-03T05:09:45.981Z,903.00
2022-08-03T05:10:22.135Z,888.80
2022-08-03T05:11:21.113Z,880.90
2022-08-03T05:12:21.114Z,885.50
2022-08-03T05:13:21.439Z,878.80
2022-08-03T05:14:28.304Z,873.30
2022-08-03T05:15:22.071Z,892.30
2022-08-03T05:16:21.051Z,900.40
2022-08-03T05:17:21.045Z,923.20
2022-08-03T05:18:21.019Z,930.60
2022-08-03T05:19:21.023Z,923.50
2022-08-03T05:20:21.006Z,926.00
2022-08-03T05:21:20.996Z,941.50
2022-08-03T05:22:20.974Z,939.60
2022-08-03T05:23:20.966Z,952.80
2022-08-03T05:24:21.299Z,938.70
2022-08-03T05:25:23.342Z,947.00
2022-08-03T05:26:21.914Z,939.60
2022-08-03T05:27:20.906Z,919.80
2022-08-03T05:28:20.897Z,922.70
2022-08-03T05:29:20.876Z,911.20
2022-08-03T05:30:29.612Z,905.50
2022-08-03T05:31:21.845Z,893.50
2022-08-03T05:32:21.142Z,902.90
2022-08-03T05:33:20.835Z,897.60
2022-08-03T05:34:20.815Z,901.20
2022-08-03T05:36:01.257Z,906.10
2022-08-03T05:36:21.785Z,892.40
2022-08-03T05:37:20.776Z,894.40
2022-08-03T05:38:23.713Z,892.00
2022-08-03T05:39:21.746Z,888.80
2022-08-03T05:40:20.739Z,887.00
2022-08-03T05:41:36.610Z,869.90
2022-08-03T05:42:21.708Z,875.30
2022-08-03T05:43:20.696Z,876.20
2022-08-03T05:44:20.688Z,861.70
2022-08-03T05:45:23.180Z,864.00
2022-08-03T05:46:20.727Z,843.50
2022-08-03T05:47:20.640Z,837.00
2022-08-03T05:48:20.631Z,832.20
2022-08-03T05:49:20.668Z,825.20
2022-08-03T05:50:20.615Z,814.50
2022-08-03T05:51:20.594Z,823.90
2022-08-03T05:52:20.584Z,833.80
2022-08-03T05:53:20.566Z,858.70
2022-08-03T05:54:20.561Z,870.90
2022-08-03T05:55:20.531Z,875.00
2022-08-03T05:56:20.531Z,874.20
2022-08-03T05:57:20.939Z,865.80
2022-08-03T05:58:20.500Z,852.00
2022-08-03T05:59:37.495Z,850.70
2022-08-03T06:00:21.474Z,844.50
2022-08-03T06:01:20.520Z,835.40
2022-08-03T06:02:20.447Z,834.90
2022-08-03T06:03:20.431Z,825.70
2022-08-03T06:04:20.433Z,820.10
2022-08-03T06:05:20.390Z,832.00
2022-08-03T06:06:20.394Z,832.30
2022-08-03T06:07:20.374Z,824.90
2022-08-03T06:08:20.385Z,821.90
2022-08-03T06:09:20.359Z,820.10
2022-08-03T06:10:36.004Z,816.50
2022-08-03T06:11:21.323Z,816.40
2022-08-03T06:12:20.665Z,807.10
2022-08-03T06:13:20.302Z,805.40
2022-08-03T06:14:20.293Z,820.50
2022-08-03T06:15:20.276Z,816.30
2022-08-03T06:16:20.254Z,825.20
2022-08-03T06:17:20.245Z,830.70
2022-08-03T06:18:20.236Z,844.30
2022-08-03T06:19:20.464Z,879.30
2022-08-03T06:20:20.203Z,883.00
2022-08-03T06:21:20.186Z,910.00
2022-08-03T06:22:20.191Z,923.30
2022-08-03T06:23:20.168Z,925.70
2022-08-03T06:24:20.159Z,927.40
2022-08-03T06:25:21.447Z,928.30
2022-08-03T06:26:20.124Z,941.10
2022-08-03T06:27:20.113Z,936.30
2022-08-03T06:28:51.879Z,930.20
2022-08-03T06:29:21.104Z,931.40
2022-08-03T06:30:21.453Z,932.00
2022-08-03T06:31:20.056Z,918.50
2022-08-03T06:32:20.315Z,925.50
2022-08-03T06:33:20.046Z,905.20
2022-08-03T06:34:33.938Z,910.90
2022-08-03T06:35:21.007Z,916.60
2022-08-03T06:36:19.996Z,912.50
2022-08-03T06:37:19.979Z,920.50
2022-08-03T06:38:19.967Z,928.10
2022-08-03T06:39:19.960Z,919.70
2022-08-03T06:40:21.787Z,921.80
2022-08-03T06:41:19.928Z,922.70
2022-08-03T06:42:20.675Z,921.90
2022-08-03T06:43:19.897Z,920.00
2022-08-03T06:44:19.899Z,910.40
2022-08-03T06:45:19.880Z,904.70
2022-08-03T06:46:19.860Z,917.70
2022-08-03T06:47:19.860Z,921.00
2022-08-03T06:48:19.838Z,899.60
2022-08-03T06:49:19.868Z,894.20
2022-08-03T06:50:22.959Z,892.70
2022-08-03T06:51:20.868Z,881.50
2022-08-03T06:52:38.316Z,884.00
2022-08-03T06:53:21.517Z,891.40
2022-08-03T06:54:19.760Z,890.20
2022-08-03T06:55:19.749Z,877.80
2022-08-03T06:56:19.733Z,892.00
2022-08-03T06:57:19.731Z,895.30
2022-08-03T06:58:19.700Z,882.80
2022-08-03T07:00:06.541Z,849.70
2022-08-03T07:00:20.690Z,855.40
2022-08-03T07:01:19.698Z,876.90
2022-08-03T07:02:20.012Z,856.30
2022-08-03T07:03:19.653Z,836.60
2022-08-03T07:04:19.633Z,833.80
2022-08-03T07:05:19.612Z,849.80
2022-08-03T07:06:19.603Z,844.20
2022-08-03T07:07:19.652Z,835.50
2022-08-03T07:08:19.573Z,859.20
2022-08-03T07:09:20.573Z,838.80
2022-08-03T07:10:19.553Z,855.30
2022-08-03T07:11:19.536Z,854.10
2022-08-03T07:12:19.570Z,851.90
2022-08-03T07:13:19.883Z,861.70
2022-08-03T07:14:19.505Z,783.30
2022-08-03T07:15:20.683Z,773.20
2022-08-03T07:16:20.482Z,785.80
2022-08-03T07:17:19.445Z,796.60
2022-08-03T07:18:24.648Z,797.30
2022-08-03T07:19:20.429Z,790.20
2022-08-03T07:20:19.420Z,773.70
2022-08-03T07:21:19.397Z,762.00
2022-08-03T07:22:19.612Z,754.10
2022-08-03T07:23:19.576Z,746.40
2022-08-03T07:24:19.446Z,730.50
2022-08-03T07:25:19.350Z,716.70
2022-08-03T07:26:19.343Z,709.10
2022-08-03T07:27:19.337Z,713.50
2022-08-03T07:28:19.326Z,718.50
2022-08-03T07:29:19.307Z,727.00
2022-08-03T07:30:19.288Z,713.80
2022-08-03T07:31:19.268Z,711.80
2022-08-03T07:32:19.416Z,712.10
2022-08-03T07:33:19.261Z,717.60
2022-08-03T07:34:19.239Z,729.30
2022-08-03T07:35:24.863Z,715.50
2022-08-03T07:36:20.218Z,726.40
2022-08-03T07:37:19.200Z,723.80
2022-08-03T07:38:21.159Z,718.40
2022-08-03T07:39:19.180Z,707.70
2022-08-03T07:40:19.170Z,698.20
2022-08-03T07:41:19.139Z,718.30
2022-08-03T07:42:19.282Z,720.70
2022-08-03T07:43:19.122Z,715.20
2022-08-03T07:44:19.111Z,740.50
2022-08-03T07:45:19.084Z,723.50
2022-08-03T07:46:19.358Z,719.90
2022-08-03T07:47:22.801Z,730.00
2022-08-03T07:48:19.053Z,712.50
2022-08-03T07:49:19.061Z,721.70
2022-08-03T07:50:19.033Z,710.50
2022-08-03T07:51:19.011Z,700.60
2022-08-03T07:52:19.278Z,687.70
2022-08-03T07:53:18.990Z,678.60
2022-08-03T07:54:18.983Z,682.90
2022-08-03T07:55:18.986Z,680.40
2022-08-03T07:56:18.983Z,682.90
2022-08-03T07:57:19.023Z,667.20
2022-08-03T07:58:23.686Z,669.90
2022-08-03T07:59:19.905Z,667.10
2022-08-03T08:00:18.907Z,678.30
2022-08-03T08:01:18.920Z,647.10
2022-08-03T08:02:19.005Z,663.00
2022-08-03T08:03:18.854Z,671.40
2022-08-03T08:04:18.857Z,686.00
2022-08-03T08:05:18.834Z,693.60
2022-08-03T08:06:18.822Z,680.20
2022-08-03T08:07:18.796Z,676.70
2022-08-03T08:08:18.876Z,680.60
2022-08-03T08:09:18.786Z,654.90
2022-08-03T08:10:18.907Z,650.10
2022-08-03T08:11:18.750Z,662.70
2022-08-03T08:12:19.005Z,638.70
2022-08-03T08:13:18.727Z,621.80
2022-08-03T08:14:18.718Z,603.70
2022-08-03T08:15:18.709Z,614.90
2022-08-03T08:16:18.688Z,613.00
2022-08-03T08:17:18.667Z,622.50
2022-08-03T08:18:18.672Z,623.10
2022-08-03T08:19:18.719Z,615.40
2022-08-03T08:20:27.042Z,618.30
2022-08-03T08:21:19.627Z,606.90
2022-08-03T08:22:19.013Z,614.90
2022-08-03T08:23:37.018Z,618.30
2022-08-03T08:24:19.796Z,620.20
2022-08-03T08:25:19.348Z,621.80
2022-08-03T08:26:18.574Z,603.60
2022-08-03T08:27:18.541Z,591.70
2022-08-03T08:28:29.233Z,593.50
2022-08-03T08:29:19.863Z,604.50
2022-08-03T08:30:19.319Z,607.60
2022-08-03T08:31:18.499Z,606.00
2022-08-03T08:32:18.889Z,607.10
2022-08-03T08:33:23.298Z,601.60
2022-08-03T08:34:18.462Z,603.90
2022-08-03T08:35:18.445Z,592.50
2022-08-03T08:36:18.433Z,589.20
2022-08-03T08:37:18.419Z,602.00
2022-08-03T08:38:18.415Z,639.90
2022-08-03T08:39:18.394Z,617.00
2022-08-03T08:40:18.452Z,595.80
2022-08-03T08:41:18.366Z,590.10
2022-08-03T08:42:18.636Z,583.80
2022-08-03T08:43:18.344Z,584.40
2022-08-03T08:44:18.344Z,590.60
2022-08-03T08:45:18.317Z,600.00
2022-08-03T08:46:23.537Z,576.20
2022-08-03T08:47:19.285Z,592.70
2022-08-03T08:48:18.286Z,615.90
2022-08-03T08:49:18.309Z,581.60
2022-08-03T08:50:27.991Z,586.00
2022-08-03T08:51:19.476Z,592.80
2022-08-03T08:52:25.452Z,621.50
2022-08-03T08:53:22.791Z,624.50
2022-08-03T08:54:19.205Z,598.30
2022-08-03T08:55:18.178Z,621.30
2022-08-03T08:56:18.178Z,613.90
2022-08-03T08:57:40.685Z,621.40
2022-08-03T08:58:20.946Z,634.20
2022-08-03T08:59:18.128Z,609.40
2022-08-03T09:00:18.137Z,607.70
2022-08-03T09:01:18.438Z,599.00
2022-08-03T09:02:19.235Z,616.10
2022-08-03T09:03:22.375Z,611.10
2022-08-03T09:04:19.073Z,628.00
2022-08-03T09:05:18.049Z,653.80
2022-08-03T09:06:18.050Z,605.70
2022-08-03T09:07:20.340Z,586.00
2022-08-03T09:08:18.030Z,610.80
2022-08-03T09:10:08.333Z,606.80
2022-08-03T09:10:19.002Z,598.10
2022-08-03T09:11:17.984Z,625.30
2022-08-03T09:12:40.567Z,623.80
2022-08-03T09:13:19.022Z,624.20
2022-08-03T09:14:39.389Z,630.50
2022-08-03T09:15:18.932Z,608.10
2022-08-03T09:16:17.922Z,625.00
2022-08-03T09:17:17.998Z,618.70
2022-08-03T09:18:17.893Z,625.80
2022-08-03T09:19:17.881Z,621.70
2022-08-03T09:20:17.865Z,623.30
2022-08-03T09:21:34.230Z,588.00
2022-08-03T09:22:18.854Z,613.40
2022-08-03T09:23:51.645Z,625.00
2022-08-03T09:24:37.292Z,597.50
2022-08-03T09:25:25.859Z,615.00
2022-08-03T09:26:18.786Z,600.70
2022-08-03T09:27:18.057Z,616.60
2022-08-03T09:28:53.973Z,611.40
2022-08-03T09:29:18.745Z,609.10
2022-08-03T09:30:33.412Z,648.00
2022-08-03T09:31:18.717Z,620.10
2022-08-03T09:32:17.718Z,633.00
2022-08-03T09:33:17.706Z,649.60
2022-08-03T09:34:17.720Z,641.50
2022-08-03T09:35:27.916Z,652.70
2022-08-03T09:36:18.667Z,694.30
2022-08-03T09:37:17.859Z,682.40
2022-08-03T09:38:17.647Z,657.60
2022-08-03T09:39:17.619Z,657.70
2022-08-03T09:40:17.609Z,647.10
2022-08-03T09:41:17.607Z,653.30
2022-08-03T09:42:18.260Z,672.30
2022-08-03T09:43:17.569Z,678.20
2022-08-03T09:44:25.624Z,661.80
2022-08-03T09:45:18.730Z,632.60
2022-08-03T09:46:17.542Z,644.30
2022-08-03T09:47:17.856Z,660.70
2022-08-03T09:48:17.502Z,704.20
2022-08-03T09:49:17.520Z,693.60
2022-08-03T09:50:17.490Z,702.40
2022-08-03T09:51:33.001Z,695.80
2022-08-03T09:52:32.900Z,700.60
2022-08-03T09:53:18.440Z,682.50
2022-08-03T09:54:20.651Z,686.40
2022-08-03T09:56:34.260Z,699.20
2022-08-03T09:56:34.727Z,713.50
2022-08-03T09:57:18.627Z,700.10
2022-08-03T09:58:17.383Z,702.40
2022-08-03T09:59:17.363Z,708.20
2022-08-03T10:00:17.357Z,700.10
2022-08-03T10:01:25.275Z,698.30
2022-08-03T10:02:18.334Z,697.50
2022-08-03T10:03:17.313Z,638.50
2022-08-03T10:04:17.305Z,535.00
2022-08-03T10:05:19.779Z,551.50
2022-08-03T10:06:17.277Z,556.80
2022-08-03T10:07:17.598Z,557.30
2022-08-03T10:08:17.257Z,563.30
2022-08-03T10:09:17.236Z,561.70
2022-08-03T10:10:28.871Z,550.40
2022-08-03T10:11:18.218Z,569.40
2022-08-03T10:12:17.206Z,572.80
2022-08-03T10:13:17.196Z,579.20
2022-08-03T10:14:17.167Z,571.40
2022-08-03T10:16:22.329Z,555.90
2022-08-03T10:16:22.389Z,561.60
2022-08-03T10:17:18.358Z,544.20
2022-08-03T10:18:17.137Z,537.50
2022-08-03T10:19:17.123Z,559.40
2022-08-03T10:20:17.101Z,549.00
2022-08-03T10:21:17.091Z,544.70
2022-08-03T10:22:17.080Z,553.30
2022-08-03T10:23:17.071Z,554.00
2022-08-03T10:24:17.054Z,574.40
2022-08-03T10:25:17.062Z,545.20
2022-08-03T10:26:17.030Z,554.60
2022-08-03T10:27:17.211Z,558.10
2022-08-03T10:28:17.184Z,548.60
2022-08-03T10:29:17.001Z,540.70
2022-08-03T10:30:16.972Z,546.20
2022-08-03T10:31:16.985Z,545.40
2022-08-03T10:32:16.962Z,538.00
2022-08-03T10:33:49.794Z,541.40
2022-08-03T10:34:17.944Z,528.70
2022-08-03T10:35:20.975Z,543.20
2022-08-03T10:36:16.904Z,555.00
2022-08-03T10:37:17.198Z,582.00
2022-08-03T10:38:16.896Z,589.40
2022-08-03T10:39:18.056Z,596.00
2022-08-03T10:40:33.479Z,602.00
2022-08-03T10:41:17.855Z,615.00
2022-08-03T10:42:16.836Z,617.10
2022-08-03T10:43:16.846Z,635.50
2022-08-03T10:44:16.817Z,626.50
2022-08-03T10:45:16.838Z,621.60
2022-08-03T10:46:16.797Z,642.90
2022-08-03T10:47:17.045Z,646.90
2022-08-03T10:48:16.767Z,655.90
2022-08-03T10:49:16.832Z,681.50
2022-08-03T10:50:17.849Z,681.00
2022-08-03T10:51:16.739Z,703.00
2022-08-03T10:52:33.729Z,706.20
2022-08-03T10:53:20.032Z,710.10
2022-08-03T10:54:16.689Z,696.80
2022-08-03T10:55:16.700Z,710.10
2022-08-03T10:56:16.960Z,701.70
2022-08-03T10:57:17.821Z,710.30
2022-08-03T10:58:30.597Z,652.70
2022-08-03T10:59:27.491Z,582.70
2022-08-03T11:00:17.631Z,609.10
2022-08-03T11:01:16.867Z,627.40
2022-08-03T11:02:16.606Z,640.00
2022-08-03T11:03:16.624Z,660.20
2022-08-03T11:04:17.075Z,643.00
2022-08-03T11:05:16.587Z,657.20
2022-08-03T11:06:16.561Z,643.70
2022-08-03T11:07:16.930Z,647.60
2022-08-03T11:08:16.535Z,650.50
2022-08-03T11:09:16.546Z,630.20
2022-08-03T11:10:16.514Z,637.60
2022-08-03T11:11:16.505Z,635.20
2022-08-03T11:12:16.565Z,626.70
2022-08-03T11:13:16.918Z,614.60
2022-08-03T11:14:16.481Z,627.70
2022-08-03T11:15:16.465Z,627.90
2022-08-03T11:16:21.240Z,564.20
2022-08-03T11:17:17.640Z,565.10
2022-08-03T11:18:16.423Z,582.70
2022-08-03T11:19:16.440Z,576.00
2022-08-03T11:20:16.405Z,564.20
2022-08-03T11:21:16.397Z,550.10
2022-08-03T11:22:16.388Z,562.10
2022-08-03T11:23:16.457Z,560.50
2022-08-03T11:24:16.373Z,538.30
2022-08-03T11:25:53.915Z,517.70
2022-08-03T11:26:17.327Z,531.60
2022-08-03T11:27:16.471Z,542.80
2022-08-03T11:28:16.309Z,523.90
2022-08-03T11:29:16.309Z,528.50
2022-08-03T11:30:16.290Z,592.30
2022-08-03T11:31:39.209Z,578.70
2022-08-03T11:32:19.586Z,600.70
2022-08-03T11:33:16.258Z,603.90
2022-08-03T11:34:16.409Z,609.50
2022-08-03T11:35:16.249Z,620.10
2022-08-03T11:36:16.219Z,626.80
2022-08-03T11:37:17.486Z,653.70
2022-08-03T11:38:16.205Z,643.00
2022-08-03T11:39:16.573Z,609.00
2022-08-03T11:40:16.182Z,512.70
2022-08-03T11:41:16.173Z,532.90
2022-08-03T11:42:16.152Z,568.90
2022-08-03T11:43:16.143Z,558.90
2022-08-03T11:44:16.132Z,528.10
2022-08-03T11:45:16.284Z,537.50
2022-08-03T11:46:16.112Z,546.90
2022-08-03T11:47:17.198Z,534.40
2022-08-03T11:48:16.094Z,519.80
2022-08-03T11:49:16.130Z,521.00
2022-08-03T11:50:16.062Z,523.90
2022-08-03T11:51:16.059Z,534.80
2022-08-03T11:52:16.043Z,549.60
2022-08-03T11:53:16.035Z,531.90
2022-08-03T11:54:16.014Z,504.00
2022-08-03T11:55:16.018Z,513.60
2022-08-03T11:56:16.348Z,520.00
2022-08-03T11:57:16.310Z,518.50
2022-08-03T11:59:17.558Z,530.00
2022-08-03T11:59:21.644Z,601.50
2022-08-03T12:00:16.957Z,600.60
2022-08-03T12:01:18.875Z,599.70
2022-08-03T12:02:16.929Z,630.70
2022-08-03T12:03:15.990Z,626.20
2022-08-03T12:04:15.909Z,635.70
2022-08-03T12:05:15.898Z,621.10
2022-08-03T12:06:15.890Z,616.90
2022-08-03T12:08:02.522Z,547.60
2022-08-03T12:08:16.872Z,501.60
2022-08-03T12:09:15.851Z,513.70
2022-08-03T12:10:15.829Z,523.30
2022-08-03T12:11:15.822Z,526.40
2022-08-03T12:12:15.817Z,518.50
2022-08-03T12:14:45.855Z,530.30
2022-08-03T12:14:49.949Z,511.10
2022-08-03T12:15:16.816Z,532.30
2022-08-03T12:16:15.771Z,519.50
2022-08-03T12:17:15.863Z,515.80
2022-08-03T12:18:16.077Z,498.60
2022-08-03T12:19:15.740Z,513.50
2022-08-03T12:20:15.723Z,499.10
2022-08-03T12:21:15.714Z,500.70
2022-08-03T12:22:15.705Z,511.50
2022-08-03T12:23:15.693Z,526.60
2022-08-03T12:24:15.671Z,519.10
2022-08-03T12:25:15.725Z,528.60
2022-08-03T12:26:15.674Z,517.20
2022-08-03T12:27:15.728Z,510.30
2022-08-03T12:28:37.291Z,498.30